sensor_id;sensor_type;location;lat;lon;timestamp;temperature;humidity
2757;DHT22;1386;50.862;6.494;2022-12-18T00:01:43;-5.60;99.90
2757;DHT22;1386;50.862;6.494;2022-12-18T00:04:18;-5.60;99.90
2757;DHT22;1386;50.862;6.494;2022-12-18T00:07:13;-5.60;99.90
2757;DHT22;1386;50.862;6.494;2022-12-18T00:09:51;-5.70;99.90
2757;DHT22;1386;50.862;6.494;2022-12-18T00:12:24;-5.70;99.90
2757;DHT22;1386;50.862;6.494;2022-12-18T00:22:06;-5.90;99.90
2757;DHT22;1386;50.862;6.494;2022-12-18T00:31:18;-5.90;99.90
2757;DHT22;1386;50.862;6.494;2022-12-18T00:33:46;-5.90;99.90
2757;DHT22;1386;50.862;6.494;2022-12-18T00:36:15;-5.90;99.90
2757;DHT22;1386;50.862;6.494;2022-12-18T00:38:43;-5.90;99.90
2757;DHT22;1386;50.862;6.494;2022-12-18T00:41:14;-5.90;99.90
2757;DHT22;1386;50.862;6.494;2022-12-18T00:44:06;-5.90;99.90
2757;DHT22;1386;50.862;6.494;2022-12-18T00:46:32;-6.00;99.90
2757;DHT22;1386;50.862;6.494;2022-12-18T00:49:01;-6.00;99.90
2757;DHT22;1386;50.862;6.494;2022-12-18T00:51:28;-6.00;99.90
2757;DHT22;1386;50.862;6.494;2022-12-18T00:53:55;-6.00;99.90
2757;DHT22;1386;50.862;6.494;2022-12-18T00:56:22;-6.10;99.90
2757;DHT22;1386;50.862;6.494;2022-12-18T00:58:49;-6.10;99.90
2757;DHT22;1386;50.862;6.494;2022-12-18T01:01:16;-6.10;99.90
2757;DHT22;1386;50.862;6.494;2022-12-18T01:03:43;-6.10;99.90
2757;DHT22;1386;50.862;6.494;2022-12-18T01:06:13;-6.00;99.90
2757;DHT22;1386;50.862;6.494;2022-12-18T01:08:40;-6.00;99.90
2757;DHT22;1386;50.862;6.494;2022-12-18T01:11:08;-5.90;99.90
2757;DHT22;1386;50.862;6.494;2022-12-18T01:13:35;-5.90;99.90
2757;DHT22;1386;50.862;6.494;2022-12-18T01:16:02;-5.90;99.90
2757;DHT22;1386;50.862;6.494;2022-12-18T01:18:29;-5.80;99.90
2757;DHT22;1386;50.862;6.494;2022-12-18T01:20:56;-5.80;99.90
2757;DHT22;1386;50.862;6.494;2022-12-18T01:23:24;-5.80;99.90
2757;DHT22;1386;50.862;6.494;2022-12-18T01:25:51;-5.80;99.90
2757;DHT22;1386;50.862;6.494;2022-12-18T01:28:18;-5.80;99.90
2757;DHT22;1386;50.862;6.494;2022-12-18T01:30:45;-5.70;99.90
2757;DHT22;1386;50.862;6.494;2022-12-18T01:33:12;-5.70;99.90
2757;DHT22;1386;50.862;6.494;2022-12-18T01:35:42;-5.70;99.90
2757;DHT22;1386;50.862;6.494;2022-12-18T01:38:11;-5.60;99.90
2757;DHT22;1386;50.862;6.494;2022-12-18T01:40:39;-5.60;99.90
2757;DHT22;1386;50.862;6.494;2022-12-18T01:43:09;-5.60;99.90
2757;DHT22;1386;50.862;6.494;2022-12-18T01:45:37;-5.60;99.90
2757;DHT22;1386;50.862;6.494;2022-12-18T01:48:06;-5.60;99.90
2757;DHT22;1386;50.862;6.494;2022-12-18T01:50:36;-5.60;99.90
2757;DHT22;1386;50.862;6.494;2022-12-18T01:53:07;-5.60;99.90
2757;DHT22;1386;50.862;6.494;2022-12-18T01:55:41;-5.60;99.90
2757;DHT22;1386;50.862;6.494;2022-12-18T01:58:09;-5.60;99.90
2757;DHT22;1386;50.862;6.494;2022-12-18T02:00:36;-5.60;99.90
2757;DHT22;1386;50.862;6.494;2022-12-18T02:03:03;-5.60;99.90
2757;DHT22;1386;50.862;6.494;2022-12-18T02:05:39;-5.60;99.90
2757;DHT22;1386;50.862;6.494;2022-12-18T02:08:10;-5.60;99.90
2757;DHT22;1386;50.862;6.494;2022-12-18T02:10:47;-5.60;99.90
2757;DHT22;1386;50.862;6.494;2022-12-18T02:13:20;-5.60;99.90
2757;DHT22;1386;50.862;6.494;2022-12-18T02:15:54;-5.60;99.90
2757;DHT22;1386;50.862;6.494;2022-12-18T02:18:28;-5.70;99.90
2757;DHT22;1386;50.862;6.494;2022-12-18T02:21:04;-5.70;99.90
2757;DHT22;1386;50.862;6.494;2022-12-18T02:23:45;-5.60;99.90
2757;DHT22;1386;50.862;6.494;2022-12-18T02:26:21;-5.70;99.90
2757;DHT22;1386;50.862;6.494;2022-12-18T02:28:51;-5.60;99.90
2757;DHT22;1386;50.862;6.494;2022-12-18T02:31:30;-5.60;99.90
2757;DHT22;1386;50.862;6.494;2022-12-18T02:34:00;-5.60;99.90
2757;DHT22;1386;50.862;6.494;2022-12-18T02:36:29;-5.70;99.90
2757;DHT22;1386;50.862;6.494;2022-12-18T02:39:00;-5.60;99.90
2757;DHT22;1386;50.862;6.494;2022-12-18T02:41:30;-5.60;99.90
2757;DHT22;1386;50.862;6.494;2022-12-18T02:43:59;-5.70;99.90
2757;DHT22;1386;50.862;6.494;2022-12-18T02:46:33;-5.80;99.90
2757;DHT22;1386;50.862;6.494;2022-12-18T02:49:06;-5.70;99.90
2757;DHT22;1386;50.862;6.494;2022-12-18T02:51:44;-5.70;99.90
2757;DHT22;1386;50.862;6.494;2022-12-18T02:54:21;-5.80;99.90
2757;DHT22;1386;50.862;6.494;2022-12-18T02:56:54;-5.80;99.90
2757;DHT22;1386;50.862;6.494;2022-12-18T02:59:28;-5.80;99.90
2757;DHT22;1386;50.862;6.494;2022-12-18T03:02:38;-5.70;99.90
2757;DHT22;1386;50.862;6.494;2022-12-18T03:43:03;-5.90;99.90
2757;DHT22;1386;50.862;6.494;2022-12-18T05:49:22;-5.60;99.90
2757;DHT22;1386;50.862;6.494;2022-12-18T05:51:49;-5.60;99.90
2757;DHT22;1386;50.862;6.494;2022-12-18T05:54:41;-5.60;99.90
2757;DHT22;1386;50.862;6.494;2022-12-18T05:57:12;-5.70;99.90
2757;DHT22;1386;50.862;6.494;2022-12-18T05:59:46;-5.70;99.90
2757;DHT22;1386;50.862;6.494;2022-12-18T06:02:24;-5.70;99.90
2757;DHT22;1386;50.862;6.494;2022-12-18T06:04:56;-5.80;99.90
2757;DHT22;1386;50.862;6.494;2022-12-18T06:07:28;-5.80;99.90
2757;DHT22;1386;50.862;6.494;2022-12-18T06:10:03;-5.80;99.90
2757;DHT22;1386;50.862;6.494;2022-12-18T06:12:42;-5.80;99.90
2757;DHT22;1386;50.862;6.494;2022-12-18T06:15:14;-5.80;99.90
2757;DHT22;1386;50.862;6.494;2022-12-18T06:17:41;-5.90;99.90
2757;DHT22;1386;50.862;6.494;2022-12-18T06:20:18;-5.90;99.90
2757;DHT22;1386;50.862;6.494;2022-12-18T06:23:08;-5.90;99.90
2757;DHT22;1386;50.862;6.494;2022-12-18T06:25:41;-5.90;99.90
2757;DHT22;1386;50.862;6.494;2022-12-18T06:28:20;-6.00;99.90
2757;DHT22;1386;50.862;6.494;2022-12-18T06:30:59;-6.00;99.90
2757;DHT22;1386;50.862;6.494;2022-12-18T06:33:33;-6.00;99.90
2757;DHT22;1386;50.862;6.494;2022-12-18T06:36:18;-6.00;99.90
2757;DHT22;1386;50.862;6.494;2022-12-18T06:41:36;-6.00;99.90
2757;DHT22;1386;50.862;6.494;2022-12-18T06:44:14;-5.90;99.90
2757;DHT22;1386;50.862;6.494;2022-12-18T06:46:54;-6.00;99.90
2757;DHT22;1386;50.862;6.494;2022-12-18T06:49:28;-6.00;99.90
2757;DHT22;1386;50.862;6.494;2022-12-18T06:52:04;-6.00;99.90
2757;DHT22;1386;50.862;6.494;2022-12-18T06:55:58;-6.00;99.90
2757;DHT22;1386;50.862;6.494;2022-12-18T06:58:09;-6.00;99.90
2757;DHT22;1386;50.862;6.494;2022-12-18T07:00:41;-5.90;99.90
2757;DHT22;1386;50.862;6.494;2022-12-18T07:06:11;-6.00;99.90
2757;DHT22;1386;50.862;6.494;2022-12-18T07:09:00;-5.90;99.90
2757;DHT22;1386;50.862;6.494;2022-12-18T07:11:46;-5.90;99.90
2757;DHT22;1386;50.862;6.494;2022-12-18T07:14:22;-5.90;99.90
2757;DHT22;1386;50.862;6.494;2022-12-18T07:18:38;-5.90;99.90
2757;DHT22;1386;50.862;6.494;2022-12-18T07:20:10;-5.80;99.90
2757;DHT22;1386;50.862;6.494;2022-12-18T07:23:12;-5.90;99.90
2757;DHT22;1386;50.862;6.494;2022-12-18T07:25:40;-5.80;99.90
2757;DHT22;1386;50.862;6.494;2022-12-18T07:28:07;-5.80;99.90
2757;DHT22;1386;50.862;6.494;2022-12-18T07:31:03;-5.80;99.90
2757;DHT22;1386;50.862;6.494;2022-12-18T07:33:32;-5.80;99.90
2757;DHT22;1386;50.862;6.494;2022-12-18T07:36:00;-5.80;99.90
2757;DHT22;1386;50.862;6.494;2022-12-18T07:38:27;-5.70;99.90
2757;DHT22;1386;50.862;6.494;2022-12-18T07:41:00;-5.70;99.90
2757;DHT22;1386;50.862;6.494;2022-12-18T07:43:27;-5.80;99.90
2757;DHT22;1386;50.862;6.494;2022-12-18T07:45:54;-5.70;99.90
2757;DHT22;1386;50.862;6.494;2022-12-18T07:48:28;-5.70;99.90
2757;DHT22;1386;50.862;6.494;2022-12-18T07:51:04;-5.70;99.90
2757;DHT22;1386;50.862;6.494;2022-12-18T07:57:17;-5.70;99.90
2757;DHT22;1386;50.862;6.494;2022-12-18T07:59:44;-5.70;99.90
2757;DHT22;1386;50.862;6.494;2022-12-18T08:02:13;-5.70;99.90
2757;DHT22;1386;50.862;6.494;2022-12-18T08:04:40;-5.70;99.90
2757;DHT22;1386;50.862;6.494;2022-12-18T08:07:07;-5.60;99.90
2757;DHT22;1386;50.862;6.494;2022-12-18T08:09:34;-5.60;99.90
2757;DHT22;1386;50.862;6.494;2022-12-18T08:12:01;-5.60;99.90
2757;DHT22;1386;50.862;6.494;2022-12-18T08:14:42;-5.60;99.90
2757;DHT22;1386;50.862;6.494;2022-12-18T08:17:09;-5.50;99.90
2757;DHT22;1386;50.862;6.494;2022-12-18T08:19:37;-5.50;99.90
2757;DHT22;1386;50.862;6.494;2022-12-18T08:22:04;-5.40;99.90
2757;DHT22;1386;50.862;6.494;2022-12-18T08:24:31;-5.40;99.90
2757;DHT22;1386;50.862;6.494;2022-12-18T08:26:58;-5.30;99.90
2757;DHT22;1386;50.862;6.494;2022-12-18T08:29:24;-5.30;99.90
2757;DHT22;1386;50.862;6.494;2022-12-18T08:31:53;-5.30;99.90
2757;DHT22;1386;50.862;6.494;2022-12-18T08:34:19;-5.20;99.90
2757;DHT22;1386;50.862;6.494;2022-12-18T08:36:46;-5.20;99.90
2757;DHT22;1386;50.862;6.494;2022-12-18T08:39:13;-5.20;99.90
2757;DHT22;1386;50.862;6.494;2022-12-18T08:41:42;-5.20;99.90
2757;DHT22;1386;50.862;6.494;2022-12-18T08:44:29;-5.10;99.90
2757;DHT22;1386;50.862;6.494;2022-12-18T08:47:08;-5.00;99.90
2757;DHT22;1386;50.862;6.494;2022-12-18T08:49:36;-5.00;99.90
2757;DHT22;1386;50.862;6.494;2022-12-18T08:52:03;-4.50;99.90
2757;DHT22;1386;50.862;6.494;2022-12-18T08:54:31;-4.00;99.90
2757;DHT22;1386;50.862;6.494;2022-12-18T08:56:58;-3.70;99.90
2757;DHT22;1386;50.862;6.494;2022-12-18T08:59:28;-3.80;99.90
2757;DHT22;1386;50.862;6.494;2022-12-18T09:01:55;-3.90;99.90
2757;DHT22;1386;50.862;6.494;2022-12-18T09:04:23;-4.00;99.90
2757;DHT22;1386;50.862;6.494;2022-12-18T09:06:50;-4.10;99.90
2757;DHT22;1386;50.862;6.494;2022-12-18T09:09:17;-4.10;99.90
2757;DHT22;1386;50.862;6.494;2022-12-18T09:11:44;-4.10;99.90
2757;DHT22;1386;50.862;6.494;2022-12-18T09:14:11;-4.10;99.90
2757;DHT22;1386;50.862;6.494;2022-12-18T09:16:37;-4.10;99.90
2757;DHT22;1386;50.862;6.494;2022-12-18T09:19:05;-4.00;99.90
2757;DHT22;1386;50.862;6.494;2022-12-18T09:21:42;-3.90;99.90
2757;DHT22;1386;50.862;6.494;2022-12-18T09:24:12;-3.90;99.90
2757;DHT22;1386;50.862;6.494;2022-12-18T09:26:39;-3.80;99.90
2757;DHT22;1386;50.862;6.494;2022-12-18T09:29:06;-3.80;99.90
2757;DHT22;1386;50.862;6.494;2022-12-18T09:31:34;-3.70;99.90
2757;DHT22;1386;50.862;6.494;2022-12-18T09:34:01;-3.60;99.90
2757;DHT22;1386;50.862;6.494;2022-12-18T09:36:28;-3.60;99.90
2757;DHT22;1386;50.862;6.494;2022-12-18T09:38:56;-3.50;99.90
2757;DHT22;1386;50.862;6.494;2022-12-18T09:41:35;-3.50;99.90
2757;DHT22;1386;50.862;6.494;2022-12-18T09:44:11;-3.40;99.90
2757;DHT22;1386;50.862;6.494;2022-12-18T09:46:43;-3.30;99.90
2757;DHT22;1386;50.862;6.494;2022-12-18T09:49:13;-3.30;99.90
2757;DHT22;1386;50.862;6.494;2022-12-18T09:51:44;-3.20;99.90
2757;DHT22;1386;50.862;6.494;2022-12-18T09:54:18;-3.10;99.90
2757;DHT22;1386;50.862;6.494;2022-12-18T09:56:47;-3.10;99.90
2757;DHT22;1386;50.862;6.494;2022-12-18T09:59:20;-3.10;99.90
2757;DHT22;1386;50.862;6.494;2022-12-18T10:01:47;-3.00;99.90
2757;DHT22;1386;50.862;6.494;2022-12-18T10:04:19;-2.90;99.90
2757;DHT22;1386;50.862;6.494;2022-12-18T10:06:52;-2.80;99.90
2757;DHT22;1386;50.862;6.494;2022-12-18T10:09:28;-2.80;99.90
2757;DHT22;1386;50.862;6.494;2022-12-18T10:12:04;-2.40;99.90
2757;DHT22;1386;50.862;6.494;2022-12-18T10:14:40;-1.90;99.90
2757;DHT22;1386;50.862;6.494;2022-12-18T10:17:17;-2.00;99.90
2757;DHT22;1386;50.862;6.494;2022-12-18T10:19:59;-2.00;99.90
2757;DHT22;1386;50.862;6.494;2022-12-18T10:22:54;-1.90;99.90
2757;DHT22;1386;50.862;6.494;2022-12-18T10:29:20;-1.90;99.90
2757;DHT22;1386;50.862;6.494;2022-12-18T10:35:32;-1.80;99.90
2757;DHT22;1386;50.862;6.494;2022-12-18T10:48:56;-1.70;99.90
2757;DHT22;1386;50.862;6.494;2022-12-18T10:51:37;-1.70;99.90
2757;DHT22;1386;50.862;6.494;2022-12-18T11:00:38;-1.60;99.90
2757;DHT22;1386;50.862;6.494;2022-12-18T13:19:21;-0.80;99.90
2757;DHT22;1386;50.862;6.494;2022-12-18T15:02:42;-1.50;99.90
2757;DHT22;1386;50.862;6.494;2022-12-18T15:05:17;-1.60;99.90
2757;DHT22;1386;50.862;6.494;2022-12-18T15:07:46;-1.60;99.90
2757;DHT22;1386;50.862;6.494;2022-12-18T15:10:15;-1.60;99.90
2757;DHT22;1386;50.862;6.494;2022-12-18T15:12:44;-1.70;99.90
2757;DHT22;1386;50.862;6.494;2022-12-18T15:15:45;-1.60;99.90
2757;DHT22;1386;50.862;6.494;2022-12-18T15:18:18;-1.70;99.90
2757;DHT22;1386;50.862;6.494;2022-12-18T15:20:50;-1.70;99.90
2757;DHT22;1386;50.862;6.494;2022-12-18T15:23:20;-1.70;99.90
2757;DHT22;1386;50.862;6.494;2022-12-18T15:25:49;-1.70;99.90
2757;DHT22;1386;50.862;6.494;2022-12-18T15:28:23;-1.70;99.90
2757;DHT22;1386;50.862;6.494;2022-12-18T15:31:02;-1.70;99.90
2757;DHT22;1386;50.862;6.494;2022-12-18T15:33:33;-1.70;99.90
2757;DHT22;1386;50.862;6.494;2022-12-18T15:36:02;-1.80;99.90
2757;DHT22;1386;50.862;6.494;2022-12-18T15:38:32;-1.80;99.90
2757;DHT22;1386;50.862;6.494;2022-12-18T15:41:02;-1.80;99.90
2757;DHT22;1386;50.862;6.494;2022-12-18T15:43:29;-1.90;99.90
2757;DHT22;1386;50.862;6.494;2022-12-18T15:46:03;-1.90;99.90
2757;DHT22;1386;50.862;6.494;2022-12-18T15:48:32;-2.00;99.90
2757;DHT22;1386;50.862;6.494;2022-12-18T15:51:00;-2.00;99.90
2757;DHT22;1386;50.862;6.494;2022-12-18T15:53:30;-1.90;99.90
2757;DHT22;1386;50.862;6.494;2022-12-18T15:55:58;-2.00;99.90
2757;DHT22;1386;50.862;6.494;2022-12-18T15:58:43;-2.00;99.90
2757;DHT22;1386;50.862;6.494;2022-12-18T16:01:10;-2.00;99.90
2757;DHT22;1386;50.862;6.494;2022-12-18T16:03:39;-2.00;99.90
2757;DHT22;1386;50.862;6.494;2022-12-18T16:06:06;-2.00;99.90
2757;DHT22;1386;50.862;6.494;2022-12-18T16:08:36;-2.00;99.90
2757;DHT22;1386;50.862;6.494;2022-12-18T16:11:03;-2.00;99.90
2757;DHT22;1386;50.862;6.494;2022-12-18T16:13:30;-2.00;99.90
2757;DHT22;1386;50.862;6.494;2022-12-18T16:15:57;-2.00;99.90
2757;DHT22;1386;50.862;6.494;2022-12-18T16:18:24;-2.00;99.90
2757;DHT22;1386;50.862;6.494;2022-12-18T16:20:53;-2.00;99.90
2757;DHT22;1386;50.862;6.494;2022-12-18T16:23:20;-2.00;99.90
2757;DHT22;1386;50.862;6.494;2022-12-18T16:25:47;-1.90;99.90
2757;DHT22;1386;50.862;6.494;2022-12-18T16:28:14;-2.00;99.90
2757;DHT22;1386;50.862;6.494;2022-12-18T16:30:41;-2.00;99.90
2757;DHT22;1386;50.862;6.494;2022-12-18T16:33:21;-2.00;99.90
2757;DHT22;1386;50.862;6.494;2022-12-18T16:35:53;-2.00;99.90
2757;DHT22;1386;50.862;6.494;2022-12-18T16:38:20;-2.00;99.90
2757;DHT22;1386;50.862;6.494;2022-12-18T16:40:47;-1.90;99.90
2757;DHT22;1386;50.862;6.494;2022-12-18T16:43:31;-2.00;99.90
2757;DHT22;1386;50.862;6.494;2022-12-18T16:45:58;-1.90;99.90
2757;DHT22;1386;50.862;6.494;2022-12-18T16:48:26;-2.00;99.90
2757;DHT22;1386;50.862;6.494;2022-12-18T16:50:59;-2.00;99.90
2757;DHT22;1386;50.862;6.494;2022-12-18T16:53:27;-2.00;99.90
2757;DHT22;1386;50.862;6.494;2022-12-18T16:55:55;-2.00;99.90
2757;DHT22;1386;50.862;6.494;2022-12-18T16:58:22;-2.00;99.90
2757;DHT22;1386;50.862;6.494;2022-12-18T17:00:49;-2.00;99.90
2757;DHT22;1386;50.862;6.494;2022-12-18T17:03:16;-2.00;99.90
2757;DHT22;1386;50.862;6.494;2022-12-18T17:05:43;-2.00;99.90
2757;DHT22;1386;50.862;6.494;2022-12-18T17:08:11;-2.00;99.90
2757;DHT22;1386;50.862;6.494;2022-12-18T17:10:38;-2.00;99.90
2757;DHT22;1386;50.862;6.494;2022-12-18T17:13:05;-2.00;99.90
2757;DHT22;1386;50.862;6.494;2022-12-18T17:15:34;-2.00;99.90
2757;DHT22;1386;50.862;6.494;2022-12-18T17:18:02;-2.00;99.90
2757;DHT22;1386;50.862;6.494;2022-12-18T17:20:29;-2.00;99.90
2757;DHT22;1386;50.862;6.494;2022-12-18T17:22:56;-2.00;99.90
2757;DHT22;1386;50.862;6.494;2022-12-18T17:25:26;-2.00;99.90
2757;DHT22;1386;50.862;6.494;2022-12-18T17:27:53;-2.00;99.90
2757;DHT22;1386;50.862;6.494;2022-12-18T17:30:20;-2.00;99.90
2757;DHT22;1386;50.862;6.494;2022-12-18T17:32:47;-2.00;99.90
2757;DHT22;1386;50.862;6.494;2022-12-18T17:35:16;-2.00;99.90
2757;DHT22;1386;50.862;6.494;2022-12-18T17:37:43;-2.00;99.90
2757;DHT22;1386;50.862;6.494;2022-12-18T17:40:10;-2.00;99.90
2757;DHT22;1386;50.862;6.494;2022-12-18T17:42:38;-2.00;99.90
2757;DHT22;1386;50.862;6.494;2022-12-18T17:45:06;-2.00;99.90
2757;DHT22;1386;50.862;6.494;2022-12-18T17:50:32;-2.00;99.90
2757;DHT22;1386;50.862;6.494;2022-12-18T17:52:59;-1.90;99.90
2757;DHT22;1386;50.862;6.494;2022-12-18T17:55:27;-1.90;99.90
2757;DHT22;1386;50.862;6.494;2022-12-18T17:57:55;-1.90;99.90
2757;DHT22;1386;50.862;6.494;2022-12-18T18:00:22;-1.90;99.90
2757;DHT22;1386;50.862;6.494;2022-12-18T18:02:49;-1.90;99.90
2757;DHT22;1386;50.862;6.494;2022-12-18T18:05:16;-1.80;99.90
2757;DHT22;1386;50.862;6.494;2022-12-18T18:07:42;-1.80;99.90
2757;DHT22;1386;50.862;6.494;2022-12-18T18:10:09;-1.80;99.90
2757;DHT22;1386;50.862;6.494;2022-12-18T18:12:36;-1.80;99.90
2757;DHT22;1386;50.862;6.494;2022-12-18T18:15:22;-1.80;99.90
2757;DHT22;1386;50.862;6.494;2022-12-18T18:17:49;-1.70;99.90
2757;DHT22;1386;50.862;6.494;2022-12-18T18:20:16;-1.70;99.90
2757;DHT22;1386;50.862;6.494;2022-12-18T18:22:43;-1.70;99.90
2757;DHT22;1386;50.862;6.494;2022-12-18T18:25:10;-1.70;99.90
2757;DHT22;1386;50.862;6.494;2022-12-18T18:27:37;-1.70;99.90
2757;DHT22;1386;50.862;6.494;2022-12-18T18:30:04;-1.70;99.90
2757;DHT22;1386;50.862;6.494;2022-12-18T18:32:34;-1.70;99.90
2757;DHT22;1386;50.862;6.494;2022-12-18T18:35:05;-1.70;99.90
2757;DHT22;1386;50.862;6.494;2022-12-18T18:37:32;-1.70;99.90
2757;DHT22;1386;50.862;6.494;2022-12-18T18:40:01;-1.60;99.90
2757;DHT22;1386;50.862;6.494;2022-12-18T18:42:28;-1.60;99.90
2757;DHT22;1386;50.862;6.494;2022-12-18T18:44:55;-1.60;99.90
2757;DHT22;1386;50.862;6.494;2022-12-18T18:47:22;-1.60;99.90
2757;DHT22;1386;50.862;6.494;2022-12-18T18:49:50;-1.60;99.90
2757;DHT22;1386;50.862;6.494;2022-12-18T18:52:17;-1.60;99.90
2757;DHT22;1386;50.862;6.494;2022-12-18T18:54:46;-1.60;99.90
2757;DHT22;1386;50.862;6.494;2022-12-18T18:57:13;-1.60;99.90
2757;DHT22;1386;50.862;6.494;2022-12-18T18:59:40;-1.60;99.90
2757;DHT22;1386;50.862;6.494;2022-12-18T19:02:10;-1.60;99.90
2757;DHT22;1386;50.862;6.494;2022-12-18T19:04:38;-1.60;99.90
2757;DHT22;1386;50.862;6.494;2022-12-18T19:07:10;-1.60;99.90
2757;DHT22;1386;50.862;6.494;2022-12-18T19:09:38;-1.60;99.90
2757;DHT22;1386;50.862;6.494;2022-12-18T19:12:05;-1.60;99.90
2757;DHT22;1386;50.862;6.494;2022-12-18T19:14:50;-1.70;99.90
2757;DHT22;1386;50.862;6.494;2022-12-18T19:17:17;-1.70;99.90
2757;DHT22;1386;50.862;6.494;2022-12-18T19:19:44;-1.60;99.90
2757;DHT22;1386;50.862;6.494;2022-12-18T19:22:12;-1.70;99.90
2757;DHT22;1386;50.862;6.494;2022-12-18T19:24:39;-1.60;99.90
2757;DHT22;1386;50.862;6.494;2022-12-18T19:27:25;-1.60;99.90
2757;DHT22;1386;50.862;6.494;2022-12-18T19:29:56;-1.60;99.90
2757;DHT22;1386;50.862;6.494;2022-12-18T19:32:26;-1.60;99.90
2757;DHT22;1386;50.862;6.494;2022-12-18T19:35:18;-1.60;99.90
2757;DHT22;1386;50.862;6.494;2022-12-18T19:37:47;-1.60;99.90
2757;DHT22;1386;50.862;6.494;2022-12-18T19:40:41;-1.50;99.90
2757;DHT22;1386;50.862;6.494;2022-12-18T19:43:27;-1.50;99.90
2757;DHT22;1386;50.862;6.494;2022-12-18T19:46:10;-1.40;99.90
2757;DHT22;1386;50.862;6.494;2022-12-18T19:48:44;-1.40;99.90
2757;DHT22;1386;50.862;6.494;2022-12-18T19:51:16;-1.40;99.90
2757;DHT22;1386;50.862;6.494;2022-12-18T19:54:01;-1.40;99.90
2757;DHT22;1386;50.862;6.494;2022-12-18T19:56:35;-1.30;99.90
2757;DHT22;1386;50.862;6.494;2022-12-18T19:59:03;-1.30;99.90
2757;DHT22;1386;50.862;6.494;2022-12-18T20:01:33;-1.20;99.90
2757;DHT22;1386;50.862;6.494;2022-12-18T20:04:03;-1.20;99.90
2757;DHT22;1386;50.862;6.494;2022-12-18T20:06:35;-1.20;99.90
2757;DHT22;1386;50.862;6.494;2022-12-18T20:09:12;-1.20;99.90
2757;DHT22;1386;50.862;6.494;2022-12-18T20:11:39;-1.20;99.90
2757;DHT22;1386;50.862;6.494;2022-12-18T20:14:05;-1.20;99.90
2757;DHT22;1386;50.862;6.494;2022-12-18T20:16:32;-1.20;99.90
2757;DHT22;1386;50.862;6.494;2022-12-18T20:18:59;-1.20;99.90
2757;DHT22;1386;50.862;6.494;2022-12-18T20:21:26;-1.20;99.90
2757;DHT22;1386;50.862;6.494;2022-12-18T20:23:53;-1.10;99.90
2757;DHT22;1386;50.862;6.494;2022-12-18T20:26:22;-1.10;99.90
2757;DHT22;1386;50.862;6.494;2022-12-18T20:28:49;-1.10;99.90
2757;DHT22;1386;50.862;6.494;2022-12-18T20:31:17;-1.00;99.90
2757;DHT22;1386;50.862;6.494;2022-12-18T20:33:44;-1.00;99.90
2757;DHT22;1386;50.862;6.494;2022-12-18T20:36:13;-1.00;99.90
2757;DHT22;1386;50.862;6.494;2022-12-18T20:38:40;-1.00;99.90
2757;DHT22;1386;50.862;6.494;2022-12-18T20:41:08;-1.00;99.90
2757;DHT22;1386;50.862;6.494;2022-12-18T20:43:37;-1.00;99.90
2757;DHT22;1386;50.862;6.494;2022-12-18T20:46:10;-1.00;99.90
2757;DHT22;1386;50.862;6.494;2022-12-18T20:48:37;-1.00;99.90
2757;DHT22;1386;50.862;6.494;2022-12-18T20:51:06;-1.00;99.90
2757;DHT22;1386;50.862;6.494;2022-12-18T20:53:34;-1.00;99.90
2757;DHT22;1386;50.862;6.494;2022-12-18T20:56:05;-1.10;99.90
2757;DHT22;1386;50.862;6.494;2022-12-18T20:58:32;-1.00;99.90
2757;DHT22;1386;50.862;6.494;2022-12-18T21:18:39;-0.90;99.90
2757;DHT22;1386;50.862;6.494;2022-12-18T21:27:58;-0.90;99.90
2757;DHT22;1386;50.862;6.494;2022-12-18T21:30:26;-0.90;99.90
2757;DHT22;1386;50.862;6.494;2022-12-18T21:32:56;-1.00;99.90
2757;DHT22;1386;50.862;6.494;2022-12-18T21:35:37;-1.00;99.90
2757;DHT22;1386;50.862;6.494;2022-12-18T21:40:56;-1.00;99.90
2757;DHT22;1386;50.862;6.494;2022-12-18T21:43:23;-0.90;99.90
2757;DHT22;1386;50.862;6.494;2022-12-18T21:46:14;-0.90;99.90
2757;DHT22;1386;50.862;6.494;2022-12-18T21:48:41;-0.90;99.90
2757;DHT22;1386;50.862;6.494;2022-12-18T21:51:12;-0.90;99.90
2757;DHT22;1386;50.862;6.494;2022-12-18T21:53:39;-0.80;99.90
2757;DHT22;1386;50.862;6.494;2022-12-18T21:56:06;-0.80;99.90
2757;DHT22;1386;50.862;6.494;2022-12-18T21:58:33;-0.80;99.90
2757;DHT22;1386;50.862;6.494;2022-12-18T22:01:02;-0.80;99.90
2757;DHT22;1386;50.862;6.494;2022-12-18T22:03:29;-0.80;99.90
2757;DHT22;1386;50.862;6.494;2022-12-18T22:05:56;-0.80;99.90
2757;DHT22;1386;50.862;6.494;2022-12-18T22:28:14;-0.50;99.90
2757;DHT22;1386;50.862;6.494;2022-12-18T22:31:10;-0.40;99.90
2757;DHT22;1386;50.862;6.494;2022-12-18T22:33:40;-0.40;99.90
2757;DHT22;1386;50.862;6.494;2022-12-18T22:36:07;-0.40;99.90
2757;DHT22;1386;50.862;6.494;2022-12-18T22:38:37;-0.40;99.90
2757;DHT22;1386;50.862;6.494;2022-12-18T22:41:20;-0.40;99.90
2757;DHT22;1386;50.862;6.494;2022-12-18T22:43:50;-0.40;99.90
2757;DHT22;1386;50.862;6.494;2022-12-18T22:46:29;-0.40;99.90
2757;DHT22;1386;50.862;6.494;2022-12-18T22:49:08;-0.40;99.90
2757;DHT22;1386;50.862;6.494;2022-12-18T22:51:41;-0.40;99.90
2757;DHT22;1386;50.862;6.494;2022-12-18T22:54:08;-0.30;99.90
2757;DHT22;1386;50.862;6.494;2022-12-18T22:56:35;-0.30;99.90
2757;DHT22;1386;50.862;6.494;2022-12-18T22:59:04;-0.30;99.90
2757;DHT22;1386;50.862;6.494;2022-12-18T23:01:32;-0.30;99.90
2757;DHT22;1386;50.862;6.494;2022-12-18T23:04:17;-0.30;99.90
2757;DHT22;1386;50.862;6.494;2022-12-18T23:06:52;-0.20;99.90
2757;DHT22;1386;50.862;6.494;2022-12-18T23:09:19;-0.20;99.90
2757;DHT22;1386;50.862;6.494;2022-12-18T23:11:46;-0.20;99.90
2757;DHT22;1386;50.862;6.494;2022-12-18T23:14:18;-0.20;99.90
2757;DHT22;1386;50.862;6.494;2022-12-18T23:16:44;-0.20;99.90
2757;DHT22;1386;50.862;6.494;2022-12-18T23:19:23;-0.20;99.90
2757;DHT22;1386;50.862;6.494;2022-12-18T23:21:50;-0.20;99.90
2757;DHT22;1386;50.862;6.494;2022-12-18T23:24:18;-0.20;99.90
2757;DHT22;1386;50.862;6.494;2022-12-18T23:26:47;-0.20;99.90
2757;DHT22;1386;50.862;6.494;2022-12-18T23:29:16;-0.20;99.90
2757;DHT22;1386;50.862;6.494;2022-12-18T23:31:42;-0.10;99.90
2757;DHT22;1386;50.862;6.494;2022-12-18T23:37:08;-0.10;99.90
2757;DHT22;1386;50.862;6.494;2022-12-18T23:39:35;-0.10;99.90
2757;DHT22;1386;50.862;6.494;2022-12-18T23:42:01;-0.10;99.90
2757;DHT22;1386;50.862;6.494;2022-12-18T23:44:30;-0.10;99.90
2757;DHT22;1386;50.862;6.494;2022-12-18T23:46:59;0.00;99.90
2757;DHT22;1386;50.862;6.494;2022-12-18T23:49:34;0.00;99.90
2757;DHT22;1386;50.862;6.494;2022-12-18T23:52:01;0.00;99.90
2757;DHT22;1386;50.862;6.494;2022-12-18T23:54:28;0.00;99.90
2757;DHT22;1386;50.862;6.494;2022-12-18T23:56:55;0.00;99.90
2757;DHT22;1386;50.862;6.494;2022-12-18T23:59:36;0.00;99.90
